createdAt,value
2022-09-05T04:16:30.043Z,1.60
2022-09-05T04:19:11.408Z,1.73
2022-09-05T04:25:28.811Z,1.60
2022-09-05T04:27:58.609Z,1.60
2022-09-05T04:30:42.918Z,1.65
2022-09-05T04:33:36.716Z,1.55
2022-09-05T04:36:10.893Z,1.55
2022-09-05T04:38:45.811Z,1.30
2022-09-05T04:41:18.164Z,1.70
2022-09-05T04:43:48.185Z,1.70
2022-09-05T04:46:26.682Z,1.50
2022-09-05T04:49:09.477Z,1.42
2022-09-05T04:51:40.100Z,1.95
2022-09-05T04:54:22.890Z,2.22
2022-09-05T04:57:14.214Z,1.90
2022-09-05T05:05:56.751Z,1.85
2022-09-05T05:06:18.131Z,1.83
2022-09-05T05:06:30.132Z,1.92
2022-09-05T05:08:56.957Z,1.98
2022-09-05T05:18:04.037Z,2.10
2022-09-05T05:18:06.724Z,2.00
2022-09-05T05:18:14.532Z,1.85
2022-09-05T05:20:41.333Z,1.98
2022-09-05T05:23:16.801Z,1.80
2022-09-05T05:25:52.104Z,2.37
2022-09-05T05:28:31.086Z,2.08
2022-09-05T05:31:10.433Z,2.15
2022-09-05T05:33:40.098Z,2.22
2022-09-05T05:36:14.884Z,2.40
2022-09-05T05:39:09.540Z,2.40
2022-09-05T05:41:44.947Z,2.38
2022-09-05T05:44:14.964Z,2.38
2022-09-05T05:46:58.134Z,2.25
2022-09-05T05:49:46.123Z,2.40
2022-09-05T05:53:04.155Z,2.08
2022-09-05T05:56:07.794Z,2.10
2022-09-05T05:59:07.507Z,3.08
2022-09-05T06:02:02.040Z,2.80
2022-09-05T06:05:07.307Z,2.42
2022-09-05T06:11:30.692Z,2.83
2022-09-05T06:14:49.787Z,2.97
2022-09-05T06:14:55.118Z,2.08
2022-09-05T06:17:46.168Z,2.72
2022-09-05T06:22:10.021Z,2.20
2022-09-05T06:23:50.990Z,2.80
2022-09-05T06:26:41.389Z,2.13
2022-09-05T06:29:46.478Z,2.63
2022-09-05T06:32:35.284Z,2.60
2022-09-05T06:35:38.954Z,2.15
2022-09-05T06:38:54.485Z,2.10
2022-09-05T06:42:05.019Z,2.25
2022-09-05T06:44:51.290Z,1.88
2022-09-05T06:47:25.991Z,1.75
2022-09-05T06:50:27.146Z,1.80
2022-09-05T06:53:20.961Z,1.60
2022-09-05T06:56:32.055Z,1.75
2022-09-05T06:59:35.904Z,1.50
2022-09-05T07:15:46.608Z,1.15
2022-09-05T07:18:27.458Z,1.10
2022-09-05T07:21:17.216Z,1.10
2022-09-05T07:24:09.567Z,1.42
2022-09-05T07:26:53.926Z,1.10
2022-09-05T07:29:40.997Z,1.73
2022-09-05T07:32:24.342Z,1.05
2022-09-05T07:34:55.881Z,1.17
2022-09-05T07:37:41.416Z,0.98
2022-09-05T07:40:29.278Z,1.30
2022-09-05T07:43:18.833Z,1.60
2022-09-05T07:46:05.774Z,1.70
2022-09-05T07:48:40.353Z,1.27
2022-09-05T07:56:46.587Z,1.13
2022-09-05T07:56:58.901Z,1.20
2022-09-05T07:57:31.677Z,1.40
2022-09-05T08:00:23.099Z,1.02
2022-09-05T08:02:58.392Z,1.25
2022-09-05T08:05:40.394Z,1.30
2022-09-05T08:09:05.637Z,1.30
2022-09-05T08:12:02.641Z,1.20
2022-09-05T08:14:55.267Z,1.33
2022-09-05T08:17:30.863Z,1.13
2022-09-05T08:20:31.989Z,1.35
2022-09-05T08:23:26.121Z,1.08
2022-09-05T08:26:11.016Z,0.93
2022-09-05T08:29:06.698Z,1.30
2022-09-05T08:31:43.393Z,1.13
2022-09-05T08:34:31.459Z,1.40
2022-09-05T08:37:33.941Z,1.15
2022-09-05T08:40:14.227Z,1.05
2022-09-05T08:44:14.940Z,1.30
2022-09-05T08:46:40.812Z,1.00
2022-09-05T08:49:32.725Z,1.15
2022-09-05T08:52:33.620Z,1.58
2022-09-05T08:55:15.995Z,1.17
2022-09-05T08:57:45.472Z,1.50
2022-09-05T09:00:19.656Z,1.45
2022-09-05T09:03:12.406Z,1.10
2022-09-05T09:06:13.739Z,1.70
2022-09-05T09:09:05.811Z,2.17
2022-09-05T09:11:42.109Z,1.40
2022-09-05T09:14:39.164Z,1.13
2022-09-05T09:17:21.599Z,1.13
2022-09-05T09:19:50.739Z,1.00
2022-09-05T09:22:41.812Z,1.55
2022-09-05T09:25:18.427Z,1.10
2022-09-05T09:28:48.745Z,0.88
2022-09-05T09:30:57.451Z,1.92
2022-09-05T09:33:36.828Z,1.60
2022-09-05T09:36:32.157Z,1.88
2022-09-05T09:39:08.120Z,1.50
2022-09-05T09:42:14.946Z,1.10
2022-09-05T09:45:51.281Z,1.30
2022-09-05T09:48:38.029Z,1.20
2022-09-05T09:51:19.158Z,1.13
2022-09-05T09:54:16.283Z,1.10
2022-09-05T09:57:01.580Z,1.25
2022-09-05T10:00:01.076Z,1.45
2022-09-05T10:06:59.094Z,1.15
2022-09-05T10:10:43.852Z,1.33
2022-09-05T10:10:52.402Z,0.88
2022-09-05T10:12:18.929Z,1.15
2022-09-05T10:15:31.293Z,1.20
2022-09-05T10:18:05.122Z,0.98
2022-09-05T10:21:16.970Z,0.93
2022-09-05T10:23:54.301Z,1.13
2022-09-05T10:26:45.716Z,0.98
2022-09-05T10:29:37.991Z,0.80
2022-09-05T10:34:41.015Z,1.08
2022-09-05T10:35:21.257Z,0.80
2022-09-05T10:37:55.078Z,1.05
2022-09-05T10:40:26.632Z,1.00
2022-09-05T10:43:01.416Z,0.88
2022-09-05T10:45:57.696Z,1.40
2022-09-05T10:48:53.678Z,1.23
2022-09-05T10:52:18.469Z,0.82
2022-09-05T10:55:14.758Z,1.33
2022-09-05T10:58:08.266Z,1.23
2022-09-05T11:02:20.687Z,1.02
2022-09-05T11:04:22.784Z,2.25
2022-09-05T11:07:48.662Z,0.95
2022-09-05T11:11:34.636Z,0.95
2022-09-05T11:14:26.410Z,1.20
2022-09-05T11:17:02.749Z,1.30
2022-09-05T11:19:42.094Z,1.30
2022-09-05T11:22:23.425Z,1.20
2022-09-05T11:24:59.660Z,0.80
2022-09-05T11:27:37.159Z,1.27
2022-09-05T11:30:28.470Z,1.20
2022-09-05T11:39:52.456Z,0.98
2022-09-05T11:40:00.458Z,0.80
2022-09-05T11:40:29.152Z,0.95
2022-09-05T11:43:24.786Z,1.20
2022-09-05T11:46:10.091Z,0.98
2022-09-05T11:49:24.021Z,1.05
2022-09-05T11:55:20.965Z,0.90
2022-09-05T11:58:43.135Z,0.80
2022-09-05T12:01:36.878Z,1.05
2022-09-05T12:04:29.173Z,0.70
2022-09-05T12:10:46.989Z,0.95
2022-09-05T12:13:46.244Z,1.02
2022-09-05T12:17:00.614Z,1.10
2022-09-05T12:19:34.645Z,1.20
2022-09-05T12:22:30.232Z,1.13
2022-09-05T12:27:36.093Z,1.15
2022-09-05T12:29:09.595Z,0.60
2022-09-05T12:33:00.941Z,0.88
2022-09-05T12:36:04.482Z,0.70
2022-09-05T12:40:56.665Z,1.00
2022-09-05T12:41:40.968Z,0.60
2022-09-05T12:41:43.841Z,1.25
2022-09-05T12:44:39.736Z,1.08
2022-09-05T12:46:48.120Z,0.80
2022-09-05T12:49:35.249Z,0.70
2022-09-05T12:52:09.159Z,1.00
2022-09-05T12:55:10.961Z,0.65
2022-09-05T13:02:55.635Z,0.75
2022-09-05T13:03:06.705Z,0.80
2022-09-05T13:03:31.710Z,0.85
2022-09-05T13:06:05.443Z,0.90
2022-09-05T13:08:58.946Z,0.90
2022-09-05T13:14:54.907Z,0.70
2022-09-05T13:14:57.339Z,0.80
2022-09-05T13:17:13.842Z,0.70
2022-09-05T13:19:51.656Z,0.80
2022-09-05T13:22:21.689Z,0.77
2022-09-05T13:24:58.311Z,0.80
2022-09-05T13:27:29.523Z,0.98
2022-09-05T13:31:49.641Z,0.70
2022-09-05T13:38:05.341Z,0.65
2022-09-05T13:38:07.595Z,0.77
2022-09-05T13:39:06.576Z,0.70
2022-09-05T13:41:43.966Z,1.15
2022-09-05T13:44:27.165Z,0.63
2022-09-05T13:47:30.091Z,0.75
2022-09-05T13:50:15.037Z,0.90
2022-09-05T13:53:13.391Z,0.70
2022-09-05T13:55:46.160Z,0.75
2022-09-05T13:58:34.520Z,1.35
2022-09-05T14:01:51.205Z,0.93
2022-09-05T14:05:12.617Z,0.90
2022-09-05T14:08:17.922Z,0.73
2022-09-05T14:11:13.330Z,1.25
2022-09-05T14:14:11.469Z,0.90
2022-09-05T14:16:54.297Z,0.80
2022-09-05T14:19:43.438Z,0.77
2022-09-05T14:22:22.310Z,0.90
2022-09-05T14:24:50.153Z,1.10
2022-09-05T14:27:32.233Z,0.82
2022-09-05T14:30:35.545Z,1.23
2022-09-05T14:37:45.866Z,0.95
2022-09-05T14:37:49.006Z,0.77
2022-09-05T14:39:41.500Z,1.00
2022-09-05T14:42:29.583Z,0.70
2022-09-05T14:45:22.983Z,0.90
2022-09-05T14:50:46.743Z,0.73
2022-09-05T14:57:23.652Z,0.88
2022-09-05T15:02:45.354Z,0.80
2022-09-05T15:02:56.812Z,0.70
2022-09-05T15:05:15.087Z,0.70
2022-09-05T15:08:01.988Z,0.80
2022-09-05T15:12:24.882Z,1.05
2022-09-05T15:13:26.236Z,0.80
2022-09-05T15:16:06.583Z,0.90
2022-09-05T15:18:45.344Z,1.13
2022-09-05T15:21:33.555Z,1.17
2022-09-05T15:24:22.736Z,1.00
2022-09-05T15:27:00.404Z,0.88
2022-09-05T15:29:34.241Z,1.00
2022-09-05T15:32:21.563Z,1.10
2022-09-05T15:34:49.729Z,0.85
2022-09-05T15:37:29.037Z,0.70
2022-09-05T15:40:24.033Z,0.90
2022-09-05T15:42:59.002Z,0.95
2022-09-05T15:45:35.803Z,0.93
2022-09-05T15:48:16.303Z,0.60
2022-09-05T15:50:51.058Z,0.88
2022-09-05T15:53:25.286Z,0.80
2022-09-05T15:55:59.812Z,0.77
2022-09-05T15:58:27.572Z,1.08
2022-09-05T16:01:30.243Z,0.88
2022-09-05T16:10:43.753Z,1.05
2022-09-05T16:10:45.766Z,1.48
2022-09-05T16:12:01.689Z,0.90
2022-09-05T16:19:23.436Z,0.90
2022-09-05T16:23:30.678Z,0.70
2022-09-05T16:23:34.960Z,0.95
2022-09-05T16:24:09.194Z,0.80
2022-09-05T16:26:47.013Z,0.70
2022-09-05T16:29:29.204Z,0.80
2022-09-05T16:32:02.237Z,1.27
2022-09-05T16:34:46.077Z,1.00
2022-09-05T16:37:26.140Z,0.77
2022-09-05T16:40:01.792Z,0.77
2022-09-05T16:42:46.024Z,0.80
2022-09-05T16:45:35.228Z,0.80
2022-09-05T16:48:09.825Z,0.80
2022-09-05T16:50:59.662Z,0.90
2022-09-05T16:58:14.201Z,0.70
2022-09-05T17:01:28.277Z,0.80
2022-09-05T17:04:27.595Z,0.73
2022-09-05T17:07:05.145Z,0.90
2022-09-05T17:12:44.568Z,0.70
2022-09-05T17:15:30.652Z,0.90
2022-09-05T17:18:22.435Z,0.65
2022-09-05T17:20:56.881Z,1.00
2022-09-05T17:29:16.047Z,0.80
2022-09-05T17:29:49.899Z,2.22
2022-09-05T17:32:49.669Z,0.75
2022-09-05T17:35:23.790Z,1.02
2022-09-05T17:38:18.315Z,1.27
2022-09-05T17:41:08.051Z,1.00
2022-09-05T17:43:41.521Z,1.38
2022-09-05T17:46:24.980Z,1.23
2022-09-05T17:49:18.784Z,1.63
2022-09-05T17:51:50.992Z,1.50
2022-09-05T17:54:31.314Z,1.10
2022-09-05T17:57:28.810Z,1.20
2022-09-05T18:00:03.841Z,1.40
2022-09-05T18:02:56.063Z,1.50
2022-09-05T18:05:58.148Z,2.92
2022-09-05T18:08:51.579Z,3.13
2022-09-05T18:11:26.005Z,3.25
2022-09-05T18:13:54.708Z,1.20
2022-09-05T18:16:32.166Z,3.50
2022-09-05T18:19:49.514Z,2.20
2022-09-05T18:22:33.045Z,3.47
2022-09-05T18:25:28.154Z,1.92
2022-09-05T18:28:28.360Z,1.48
2022-09-05T18:31:18.165Z,3.13
2022-09-05T18:34:12.618Z,9.52
2022-09-05T18:36:52.057Z,2.22
2022-09-05T18:39:27.956Z,4.30
2022-09-05T18:42:37.509Z,3.58
2022-09-05T18:45:17.639Z,1.63
2022-09-05T18:47:59.690Z,3.35
2022-09-05T18:50:36.350Z,8.20
2022-09-05T18:53:13.269Z,4.88
2022-09-05T18:56:13.087Z,7.63
2022-09-05T18:59:01.500Z,4.20
2022-09-05T19:01:58.614Z,4.63
2022-09-05T19:04:49.288Z,5.68
2022-09-05T19:07:24.625Z,6.93
2022-09-05T19:10:34.430Z,4.70
2022-09-05T19:13:19.449Z,1.20
2022-09-05T19:16:42.554Z,4.30
2022-09-05T19:19:11.045Z,2.33
2022-09-05T19:22:33.215Z,4.72
2022-09-05T19:24:45.009Z,3.10
2022-09-05T19:29:27.922Z,4.22
2022-09-05T19:36:52.297Z,2.20
2022-09-05T19:36:56.934Z,2.80
2022-09-05T19:36:59.235Z,2.03
2022-09-05T19:38:24.750Z,1.77
2022-09-05T19:47:30.925Z,3.30
2022-09-05T19:47:37.190Z,1.63
2022-09-05T19:47:52.050Z,2.55
2022-09-05T19:49:40.690Z,1.73
2022-09-05T19:52:17.095Z,2.42
2022-09-05T19:54:50.539Z,3.55
2022-09-05T19:57:23.899Z,3.03
2022-09-05T20:02:29.678Z,5.25
2022-09-05T20:04:58.437Z,4.45
2022-09-05T20:07:29.360Z,5.07
2022-09-05T20:09:58.101Z,3.55
2022-09-05T20:12:35.054Z,2.47
2022-09-05T20:15:25.435Z,1.60
2022-09-05T20:18:22.917Z,1.83
2022-09-05T20:20:51.805Z,4.88
2022-09-05T20:23:19.776Z,2.42
2022-09-05T20:25:48.229Z,3.97
2022-09-05T20:28:21.439Z,3.05
2022-09-05T20:30:54.013Z,3.40
2022-09-05T20:33:42.813Z,2.27
2022-09-05T20:43:11.841Z,1.23
2022-09-05T20:43:15.201Z,2.10
2022-09-05T20:43:32.213Z,1.75
2022-09-05T20:44:51.264Z,1.83
2022-09-05T20:54:04.875Z,1.70
2022-09-05T20:54:12.987Z,1.77
2022-09-05T20:54:22.374Z,1.70
2022-09-05T20:56:09.995Z,1.70
2022-09-05T20:58:38.539Z,1.77
2022-09-05T21:01:20.016Z,2.03
2022-09-05T21:04:05.611Z,1.83
2022-09-05T21:06:34.915Z,1.10
2022-09-05T21:09:25.123Z,1.65
2022-09-05T21:11:54.730Z,2.90
2022-09-05T21:14:23.494Z,2.30
2022-09-05T21:17:16.101Z,1.50
2022-09-05T21:19:46.652Z,1.05
2022-09-05T21:22:20.853Z,2.15
2022-09-05T21:24:48.160Z,1.48
2022-09-05T21:27:23.981Z,2.10
2022-09-05T21:29:58.775Z,1.58
2022-09-05T21:32:41.294Z,2.33
2022-09-05T21:35:15.409Z,2.00
2022-09-05T21:37:56.044Z,2.72
2022-09-05T21:40:22.909Z,2.30
2022-09-05T21:47:32.909Z,1.58
2022-09-05T21:47:47.726Z,3.63
2022-09-05T21:48:24.353Z,4.65
2022-09-05T21:50:59.030Z,2.38
2022-09-05T21:57:01.783Z,2.10
2022-09-05T21:59:25.237Z,2.10
2022-09-05T21:59:46.038Z,2.30
